createdAt,value
2017-06-02T00:02:44.903Z,23.1
2017-06-02T00:02:54.992Z,23.2
2017-06-02T00:03:54.625Z,23.18
2017-06-02T00:04:54.867Z,23.15
2017-06-02T00:05:54.520Z,23.15
2017-06-02T00:06:54.741Z,23.18
2017-06-02T00:07:54.679Z,23.17
2017-06-02T00:08:54.313Z,23.13
2017-06-02T00:09:54.564Z,23.17
2017-06-02T00:10:54.532Z,23.18
2017-06-02T00:11:54.429Z,23.13
2017-06-02T00:12:54.367Z,23.13
2017-06-02T00:13:53.712Z,23.21
2017-06-02T00:14:54.239Z,23.17
2017-06-02T00:15:53.570Z,23.15
2017-06-02T00:16:54.116Z,23.2
2017-06-02T00:17:54.054Z,23.17
2017-06-02T00:18:53.693Z,23.13
2017-06-02T00:19:53.622Z,23.12
2017-06-02T00:20:53.864Z,23.18
2017-06-02T00:21:53.501Z,23.12
2017-06-02T00:22:53.436Z,23.17
2017-06-02T00:23:53.675Z,23.13
2017-06-02T00:24:53.615Z,23.15
2017-06-02T00:25:53.553Z,23.17
2017-06-02T00:26:53.496Z,23.13
2017-06-02T00:27:53.441Z,23.12
2017-06-02T00:28:53.367Z,23.15
2017-06-02T00:29:53.304Z,23.13
2017-06-02T00:30:52.940Z,23.12
2017-06-02T00:31:52.875Z,23.13
2017-06-02T00:32:52.815Z,23.13
2017-06-02T00:33:52.750Z,23.18
2017-06-02T00:34:52.691Z,23.15
2017-06-02T00:35:52.927Z,23.17
2017-06-02T00:36:52.873Z,23.1
2017-06-02T00:37:52.809Z,23.13
2017-06-02T00:38:52.743Z,23.13
2017-06-02T00:39:52.376Z,23.18
2017-06-02T00:40:52.620Z,23.18
2017-06-02T00:41:52.554Z,23.15
2017-06-02T00:42:52.190Z,23.12
2017-06-02T00:43:52.430Z,23.18
2017-06-02T00:44:52.366Z,23.18
2017-06-02T00:45:52.303Z,23.2
2017-06-02T00:46:52.244Z,23.15
2017-06-02T00:47:52.183Z,23.12
2017-06-02T00:48:52.180Z,23.1
2017-06-02T00:49:52.056Z,23.12
2017-06-02T00:50:51.991Z,23.13
2017-06-02T00:51:51.932Z,23.15
2017-06-02T00:52:51.872Z,23.15
2017-06-02T00:53:51.810Z,23.09
2017-06-02T00:54:51.743Z,23.12
2017-06-02T00:55:51.679Z,23.15
2017-06-02T00:56:51.616Z,23.12
2017-06-02T00:57:51.555Z,23.15
2017-06-02T00:58:51.502Z,23.12
2017-06-02T00:59:51.129Z,23.15
2017-06-02T01:00:51.067Z,23.13
2017-06-02T01:01:51.309Z,23.12
2017-06-02T01:02:51.250Z,23.2
2017-06-02T01:03:51.179Z,23.08
2017-06-02T01:04:51.121Z,23.17
2017-06-02T01:05:51.054Z,23.18
2017-06-02T01:06:50.990Z,23.06
2017-06-02T01:07:50.930Z,23.13
2017-06-02T01:08:50.870Z,23.15
2017-06-02T01:09:50.809Z,23.18
2017-06-02T01:10:50.766Z,23.15
2017-06-02T01:11:50.680Z,23.08
2017-06-02T01:12:50.618Z,23.12
2017-06-02T01:13:50.558Z,23.13
2017-06-02T01:14:50.230Z,23.17
2017-06-02T01:15:50.129Z,23.17
2017-06-02T01:16:50.069Z,23.17
2017-06-02T01:17:49.701Z,23.17
2017-06-02T01:18:50.245Z,23.17
2017-06-02T01:19:50.181Z,23.1
2017-06-02T01:20:50.122Z,23.17
2017-06-02T01:21:50.073Z,23.12
2017-06-02T01:22:50.001Z,23.17
2017-06-02T01:23:49.934Z,23.13
2017-06-02T01:24:49.870Z,23.12
2017-06-02T01:25:49.505Z,23.15
2017-06-02T01:26:49.744Z,23.17
2017-06-02T01:27:49.686Z,23.12
2017-06-02T01:28:49.622Z,23.09
2017-06-02T01:29:49.554Z,23.12
2017-06-02T01:30:49.497Z,23.1
2017-06-02T01:31:49.431Z,23.1
2017-06-02T01:32:49.373Z,23.09
2017-06-02T01:33:49.308Z,23.09
2017-06-02T01:34:50.451Z,23.15
2017-06-02T01:35:49.184Z,23.17
2017-06-02T01:36:49.123Z,23.13
2017-06-02T01:37:49.073Z,23.13
2017-06-02T01:38:48.997Z,23.12
2017-06-02T01:39:48.933Z,23.15
2017-06-02T01:40:48.872Z,23.15
2017-06-02T01:41:48.806Z,23.2
2017-06-02T01:42:48.747Z,23.15
2017-06-02T01:43:48.681Z,23.13
2017-06-02T01:44:48.621Z,23.15
2017-06-02T01:45:48.555Z,23.15
2017-06-02T01:46:48.492Z,23.1
2017-06-02T01:47:48.462Z,23.17
2017-06-02T01:48:48.373Z,23.1
2017-06-02T01:49:48.309Z,23.15
2017-06-02T01:50:48.245Z,23.13
2017-06-02T01:51:48.186Z,23.18
2017-06-02T01:52:48.122Z,23.12
2017-06-02T01:53:48.062Z,23.15
2017-06-02T01:54:47.996Z,23.12
2017-06-02T01:55:47.943Z,23.1
2017-06-02T01:56:47.875Z,23.13
2017-06-02T01:57:47.810Z,23.17
2017-06-02T01:58:47.761Z,23.15
2017-06-02T01:59:47.680Z,23.1
2017-06-02T02:00:47.475Z,23.12
2017-06-02T02:01:47.275Z,23.09
2017-06-02T02:02:47.196Z,23.13
2017-06-02T02:03:47.439Z,23.12
2017-06-02T02:04:47.375Z,23.09
2017-06-02T02:05:47.006Z,23.12
2017-06-02T02:06:47.246Z,23.12
2017-06-02T02:07:47.183Z,23.1
2017-06-02T02:08:47.120Z,23.12
2017-06-02T02:09:47.058Z,23.1
2017-06-02T02:10:47.000Z,23.09
2017-06-02T02:11:46.937Z,23.12
2017-06-02T02:12:46.880Z,23.1
2017-06-02T02:13:46.808Z,23.12
2017-06-02T02:14:46.749Z,23.15
2017-06-02T02:15:46.687Z,23.15
2017-06-02T02:16:46.629Z,23.13
2017-06-02T02:17:46.256Z,23.09
2017-06-02T02:18:46.500Z,23.09
2017-06-02T02:19:46.437Z,23.1
2017-06-02T02:20:46.372Z,23.09
2017-06-02T02:21:46.325Z,23.1
2017-06-02T02:22:46.247Z,23.06
2017-06-02T02:23:46.184Z,23.1
2017-06-02T02:24:46.135Z,23.1
2017-06-02T02:25:46.079Z,23.1
2017-06-02T02:26:45.997Z,23.15
2017-06-02T02:27:45.631Z,23.1
2017-06-02T02:28:45.869Z,23.09
2017-06-02T02:29:45.808Z,23.09
2017-06-02T02:30:45.748Z,23.17
2017-06-02T02:31:45.702Z,23.08
2017-06-02T02:32:45.627Z,23.1
2017-06-02T02:33:45.560Z,23.09
2017-06-02T02:34:45.501Z,23.09
2017-06-02T02:35:45.132Z,23.09
2017-06-02T02:36:45.377Z,23.08
2017-06-02T02:37:45.314Z,23.15
2017-06-02T02:38:45.245Z,23.09
2017-06-02T02:39:45.184Z,23.12
2017-06-02T02:40:45.124Z,23.12
2017-06-02T02:41:45.069Z,23.09
2017-06-02T02:42:44.694Z,23.09
2017-06-02T02:43:44.935Z,23.09
2017-06-02T02:44:44.871Z,23.18
2017-06-02T02:45:44.522Z,23.08
2017-06-02T02:46:44.748Z,23.08
2017-06-02T02:47:44.688Z,23.18
2017-06-02T02:48:44.620Z,23.08
2017-06-02T02:49:44.558Z,23.05
2017-06-02T02:50:44.500Z,23.08
2017-06-02T02:51:44.435Z,23.17
2017-06-02T02:52:44.386Z,23.05
2017-06-02T02:53:44.311Z,23.15
2017-06-02T02:54:44.247Z,23.12
2017-06-02T02:55:44.184Z,23.1
2017-06-02T02:56:44.121Z,23.2
2017-06-02T02:57:44.061Z,23.1
2017-06-02T02:58:44.000Z,23.15
2017-06-02T02:59:43.934Z,23.1
2017-06-02T03:00:43.873Z,23.08
2017-06-02T03:01:43.814Z,23.13
2017-06-02T03:02:43.751Z,23.1
2017-06-02T03:03:43.682Z,23.08
2017-06-02T03:04:43.622Z,23.08
2017-06-02T03:05:43.569Z,23.06
2017-06-02T03:06:43.498Z,23.08
2017-06-02T03:07:43.135Z,23.09
2017-06-02T03:08:43.378Z,23.12
2017-06-02T03:09:43.314Z,23.08
2017-06-02T03:10:42.948Z,23.17
2017-06-02T03:11:43.182Z,23.09
2017-06-02T03:12:43.126Z,23.08
2017-06-02T03:13:43.059Z,23.17
2017-06-02T03:14:42.696Z,23.13
2017-06-02T03:15:42.636Z,23.1
2017-06-02T03:16:42.886Z,23.08
2017-06-02T03:17:42.810Z,23.17
2017-06-02T03:18:42.750Z,23.08
2017-06-02T03:19:42.686Z,23.17
2017-06-02T03:20:42.626Z,23.15
2017-06-02T03:21:42.561Z,23.12
2017-06-02T03:22:42.498Z,23.08
2017-06-02T03:23:42.433Z,23.13
2017-06-02T03:24:42.374Z,23.1
2017-06-02T03:25:42.323Z,23.09
2017-06-02T03:26:42.249Z,23.09
2017-06-02T03:27:42.195Z,23.2
2017-06-02T03:28:42.123Z,23.09
2017-06-02T03:29:41.757Z,23.17
2017-06-02T03:30:42.000Z,23.08
2017-06-02T03:31:41.936Z,23.06
2017-06-02T03:32:41.875Z,23.15
2017-06-02T03:33:41.508Z,23.08
2017-06-02T03:34:41.748Z,23.05
2017-06-02T03:35:41.388Z,23.06
2017-06-02T03:36:41.321Z,23.08
2017-06-02T03:37:41.560Z,23.09
2017-06-02T03:38:41.497Z,23.12
2017-06-02T03:39:41.436Z,23.12
2017-06-02T03:40:41.372Z,23.06
2017-06-02T03:41:41.327Z,23.08
2017-06-02T03:42:41.249Z,23.09
2017-06-02T03:43:41.184Z,23.2
2017-06-02T03:44:41.123Z,23.08
2017-06-02T03:45:41.064Z,23.08
2017-06-02T03:46:41.606Z,23.09
2017-06-02T03:47:40.949Z,23.17
2017-06-02T03:48:40.569Z,23.09
2017-06-02T03:49:40.809Z,23.1
2017-06-02T03:50:40.751Z,23.18
2017-06-02T03:51:40.686Z,23.09
2017-06-02T03:52:40.626Z,23.1
2017-06-02T03:53:40.561Z,23.08
2017-06-02T03:54:40.517Z,23.09
2017-06-02T03:55:40.645Z,23.08
2017-06-02T03:56:40.091Z,23.1
2017-06-02T03:57:40.309Z,23.08
2017-06-02T03:58:40.254Z,23.08
2017-06-02T03:59:40.195Z,23.17
2017-06-02T04:00:39.818Z,23.06
2017-06-02T04:01:40.070Z,23.08
2017-06-02T04:02:40.009Z,23.08
2017-06-02T04:03:39.932Z,23.03
2017-06-02T04:04:39.884Z,23.1
2017-06-02T04:05:39.865Z,23.08
2017-06-02T04:06:39.746Z,23.1
2017-06-02T04:07:39.696Z,23.12
2017-06-02T04:08:39.630Z,23.1
2017-06-02T04:09:39.285Z,23.17
2017-06-02T04:10:39.500Z,23.12
2017-06-02T04:11:39.151Z,23.18
2017-06-02T04:12:39.381Z,23.08
2017-06-02T04:13:39.306Z,23.05
2017-06-02T04:14:38.957Z,23.13
2017-06-02T04:15:38.898Z,23.1
2017-06-02T04:16:39.119Z,23.08
2017-06-02T04:17:39.069Z,23.08
2017-06-02T04:18:38.692Z,23.12
2017-06-02T04:19:38.632Z,23.05
2017-06-02T04:20:38.871Z,23.05
2017-06-02T04:21:38.509Z,23.17
2017-06-02T04:22:38.457Z,23.08
2017-06-02T04:23:38.684Z,23.17
2017-06-02T04:24:38.318Z,23.1
2017-06-02T04:25:37.953Z,23.05
2017-06-02T04:26:38.494Z,23.09
2017-06-02T04:27:38.431Z,23.06
2017-06-02T04:28:38.373Z,23.03
2017-06-02T04:29:38.012Z,23.03
2017-06-02T04:30:38.243Z,23.1
2017-06-02T04:31:38.183Z,23.05
2017-06-02T04:32:38.121Z,23.02
2017-06-02T04:33:38.059Z,23.05
2017-06-02T04:34:37.998Z,23.02
2017-06-02T04:35:37.934Z,23.06
2017-06-02T04:36:37.872Z,23.02
2017-06-02T04:37:37.809Z,22.99
2017-06-02T04:38:37.746Z,23.02
2017-06-02T04:39:37.687Z,23.02
2017-06-02T04:40:37.725Z,23
2017-06-02T04:41:37.570Z,23
2017-06-02T04:42:37.502Z,22.98
2017-06-02T04:43:37.428Z,23.02
2017-06-02T04:44:36.767Z,23.02
2017-06-02T04:45:37.310Z,23
2017-06-02T04:46:36.942Z,23
2017-06-02T04:47:37.179Z,23.02
2017-06-02T04:48:37.122Z,22.96
2017-06-02T04:49:37.052Z,22.96
2017-06-02T04:50:36.994Z,23
2017-06-02T04:51:36.947Z,22.96
2017-06-02T04:52:36.865Z,22.94
2017-06-02T04:53:36.804Z,22.93
2017-06-02T04:54:36.740Z,22.96
2017-06-02T04:55:36.680Z,22.98
2017-06-02T04:56:36.619Z,23
2017-06-02T04:57:36.565Z,22.98
2017-06-02T04:58:36.493Z,22.88
2017-06-02T04:59:36.429Z,22.9
2017-06-02T05:00:36.377Z,22.94
2017-06-02T05:01:36.302Z,22.94
2017-06-02T05:02:35.937Z,22.88
2017-06-02T05:03:36.180Z,22.9
2017-06-02T05:04:36.115Z,22.98
2017-06-02T05:05:36.055Z,22.87
2017-06-02T05:06:35.999Z,22.94
2017-06-02T05:07:35.926Z,22.9
2017-06-02T05:08:35.859Z,22.91
2017-06-02T05:09:35.810Z,22.91
2017-06-02T05:10:35.742Z,22.91
2017-06-02T05:11:35.674Z,22.91
2017-06-02T05:12:35.610Z,22.99
2017-06-02T05:13:35.553Z,22.96
2017-06-02T05:14:35.491Z,22.93
2017-06-02T05:15:35.421Z,22.96
2017-06-02T05:16:34.756Z,22.9
2017-06-02T05:17:34.995Z,22.96
2017-06-02T05:18:34.932Z,22.91
2017-06-02T05:19:35.227Z,22.93
2017-06-02T05:20:35.129Z,22.94
2017-06-02T05:21:35.048Z,22.85
2017-06-02T05:22:34.704Z,22.96
2017-06-02T05:23:34.917Z,22.83
2017-06-02T05:24:34.859Z,22.8
2017-06-02T05:25:34.804Z,22.81
2017-06-02T05:26:34.738Z,22.9
2017-06-02T05:27:34.676Z,22.9
2017-06-02T05:28:34.614Z,22.91
2017-06-02T05:29:34.543Z,22.88
2017-06-02T05:30:34.183Z,22.83
2017-06-02T05:31:34.117Z,22.8
2017-06-02T05:32:34.354Z,22.81
2017-06-02T05:33:34.302Z,22.9
2017-06-02T05:34:34.229Z,22.8
2017-06-02T05:35:34.173Z,22.81
2017-06-02T05:36:34.105Z,22.83
2017-06-02T05:37:33.734Z,22.93
2017-06-02T05:38:33.978Z,22.8
2017-06-02T05:39:33.916Z,22.84
2017-06-02T05:40:33.853Z,22.78
2017-06-02T05:41:33.791Z,22.93
2017-06-02T05:42:33.423Z,22.84
2017-06-02T05:43:33.662Z,22.91
2017-06-02T05:44:33.598Z,22.8
2017-06-02T05:45:33.538Z,22.83
2017-06-02T05:46:33.172Z,22.8
2017-06-02T05:47:33.413Z,22.81
2017-06-02T05:48:33.347Z,22.88
2017-06-02T05:49:33.283Z,22.81
2017-06-02T05:50:33.220Z,22.88
2017-06-02T05:51:33.171Z,22.84
2017-06-02T05:52:32.795Z,22.83
2017-06-02T05:53:32.733Z,22.81
2017-06-02T05:54:32.970Z,22.91
2017-06-02T05:55:32.914Z,22.84
2017-06-02T05:56:32.542Z,22.84
2017-06-02T05:57:32.481Z,22.83
2017-06-02T05:58:32.721Z,22.81
2017-06-02T05:59:32.660Z,22.83
2017-06-02T06:00:32.592Z,22.76
2017-06-02T06:01:32.534Z,22.85
2017-06-02T06:02:32.467Z,22.81
2017-06-02T06:03:32.403Z,22.83
2017-06-02T06:04:32.340Z,22.8
2017-06-02T06:05:32.279Z,22.81
2017-06-02T06:06:32.219Z,22.83
2017-06-02T06:07:32.157Z,22.84
2017-06-02T06:08:32.094Z,22.84
2017-06-02T06:09:32.033Z,22.84
2017-06-02T06:10:31.970Z,22.85
2017-06-02T06:11:31.904Z,22.85
2017-06-02T06:12:31.844Z,22.78
2017-06-02T06:13:31.777Z,22.85
2017-06-02T06:14:31.413Z,22.81
2017-06-02T06:15:31.655Z,22.8
2017-06-02T06:16:31.591Z,22.83
2017-06-02T06:17:31.526Z,22.87
2017-06-02T06:18:31.458Z,22.83
2017-06-02T06:19:31.399Z,22.81
2017-06-02T06:20:31.334Z,22.76
2017-06-02T06:21:30.970Z,22.84
2017-06-02T06:22:31.207Z,22.84
2017-06-02T06:23:31.144Z,22.8
2017-06-02T06:24:31.082Z,22.8
2017-06-02T06:25:31.173Z,22.83
2017-06-02T06:26:30.965Z,22.84
2017-06-02T06:27:30.894Z,22.81
2017-06-02T06:28:30.833Z,22.81
2017-06-02T06:29:30.770Z,22.84
2017-06-02T06:30:30.709Z,22.83
2017-06-02T06:31:30.645Z,22.81
2017-06-02T06:32:30.280Z,22.83
2017-06-02T06:33:30.515Z,22.84
2017-06-02T06:34:30.457Z,22.84
2017-06-02T06:35:30.393Z,22.83
2017-06-02T06:36:30.331Z,22.83
2017-06-02T06:37:30.266Z,22.83
2017-06-02T06:38:29.906Z,22.87
2017-06-02T06:39:29.538Z,22.78
2017-06-02T06:40:30.079Z,22.8
2017-06-02T06:41:30.021Z,22.81
2017-06-02T06:42:29.949Z,22.81
2017-06-02T06:43:29.589Z,22.78
2017-06-02T06:44:29.523Z,22.84
2017-06-02T06:45:29.463Z,22.81
2017-06-02T06:46:29.402Z,22.81
2017-06-02T06:47:29.639Z,22.84
2017-06-02T06:48:29.572Z,22.78
2017-06-02T06:49:29.511Z,22.84
2017-06-02T06:50:29.449Z,22.78
2017-06-02T06:51:29.387Z,22.83
2017-06-02T06:52:29.322Z,22.84
2017-06-02T06:53:29.262Z,22.87
2017-06-02T06:54:29.206Z,22.8
2017-06-02T06:55:29.139Z,22.85
2017-06-02T06:56:29.072Z,22.8
2017-06-02T06:57:29.226Z,22.8
2017-06-02T06:58:28.945Z,22.83
2017-06-02T06:59:28.882Z,22.81
2017-06-02T07:00:28.822Z,22.81
2017-06-02T07:01:28.761Z,22.81
2017-06-02T07:02:28.697Z,22.81
2017-06-02T07:03:28.631Z,22.84
2017-06-02T07:04:28.568Z,22.81
2017-06-02T07:05:28.509Z,22.78
2017-06-02T07:06:28.444Z,22.78
2017-06-02T07:07:28.382Z,22.81
2017-06-02T07:08:28.014Z,22.8
2017-06-02T07:09:28.254Z,22.8
2017-06-02T07:10:28.191Z,22.78
2017-06-02T07:11:27.825Z,22.78
2017-06-02T07:12:27.762Z,22.81
2017-06-02T07:13:27.402Z,22.83
2017-06-02T07:14:27.943Z,22.78
2017-06-02T07:15:27.876Z,22.81
2017-06-02T07:16:27.828Z,22.87
2017-06-02T07:17:27.763Z,22.83
2017-06-02T07:18:27.690Z,22.83
2017-06-02T07:19:27.640Z,22.78
2017-06-02T07:20:27.568Z,22.85
2017-06-02T07:21:27.870Z,22.8
2017-06-02T07:22:27.440Z,22.8
2017-06-02T07:23:27.379Z,22.9
2017-06-02T07:24:27.012Z,22.8
2017-06-02T07:25:27.260Z,22.84
2017-06-02T07:26:27.189Z,22.8
2017-06-02T07:27:27.129Z,22.88
2017-06-02T07:28:27.483Z,22.84
2017-06-02T07:29:26.697Z,22.83
2017-06-02T07:30:26.639Z,22.93
2017-06-02T07:31:26.876Z,22.8
2017-06-02T07:32:26.207Z,22.85
2017-06-02T07:33:26.748Z,22.93
2017-06-02T07:34:26.685Z,22.81
2017-06-02T07:35:26.632Z,22.84
2017-06-02T07:36:26.569Z,22.78
2017-06-02T07:37:26.235Z,22.93
2017-06-02T07:38:26.133Z,22.84
2017-06-02T07:39:26.370Z,22.94
2017-06-02T07:40:26.024Z,22.84
2017-06-02T07:41:26.244Z,22.88
2017-06-02T07:42:26.184Z,22.96
2017-06-02T07:43:26.128Z,22.85
2017-06-02T07:44:26.068Z,22.83
2017-06-02T07:45:25.691Z,22.98
2017-06-02T07:46:25.936Z,22.93
2017-06-02T07:47:25.873Z,22.85
2017-06-02T07:48:25.805Z,22.88
2017-06-02T07:49:25.440Z,22.78
2017-06-02T07:50:25.382Z,22.93
2017-06-02T07:51:25.618Z,22.91
2017-06-02T07:52:25.253Z,22.83
2017-06-02T07:53:24.907Z,22.94
2017-06-02T07:54:25.430Z,22.8
2017-06-02T07:55:25.364Z,22.93
2017-06-02T07:56:25.305Z,22.93
2017-06-02T07:57:25.243Z,22.84
2017-06-02T07:58:25.180Z,22.91
2017-06-02T07:59:25.121Z,22.83
2017-06-02T08:00:25.048Z,22.81
2017-06-02T08:01:24.989Z,22.85
2017-06-02T08:02:24.927Z,22.8
2017-06-02T08:03:24.861Z,22.98
2017-06-02T08:04:24.198Z,22.83
2017-06-02T08:05:24.842Z,22.93
2017-06-02T08:06:24.679Z,22.91
2017-06-02T08:07:24.616Z,22.9
2017-06-02T08:08:24.557Z,22.94
2017-06-02T08:09:24.489Z,22.91
2017-06-02T08:10:24.579Z,22.93
2017-06-02T08:11:24.368Z,22.87
2017-06-02T08:12:24.331Z,22.93
2017-06-02T08:13:24.236Z,22.94
2017-06-02T08:14:23.873Z,22.88
2017-06-02T08:15:24.126Z,22.98
2017-06-02T08:16:23.753Z,22.94
2017-06-02T08:17:23.680Z,22.94
2017-06-02T08:18:23.928Z,22.93
2017-06-02T08:19:23.861Z,22.9
2017-06-02T08:20:23.794Z,22.88
2017-06-02T08:21:23.734Z,22.94
2017-06-02T08:22:23.368Z,22.94
2017-06-02T08:23:23.610Z,23
2017-06-02T08:24:23.243Z,23.03
2017-06-02T08:25:23.481Z,22.94
2017-06-02T08:26:23.421Z,23.05
2017-06-02T08:27:23.360Z,23.02
2017-06-02T08:28:23.298Z,23
2017-06-02T08:29:23.230Z,23
2017-06-02T08:30:23.167Z,22.98
2017-06-02T08:31:23.138Z,23.05
2017-06-02T08:32:23.040Z,22.99
2017-06-02T08:33:22.978Z,22.99
2017-06-02T08:34:22.918Z,23
2017-06-02T08:35:22.855Z,23.02
2017-06-02T08:36:22.505Z,23.06
2017-06-02T08:37:22.731Z,23
2017-06-02T08:38:22.674Z,23.02
2017-06-02T08:39:22.604Z,22.99
2017-06-02T08:40:22.541Z,23.05
2017-06-02T08:41:22.482Z,23.02
2017-06-02T08:42:22.418Z,22.99
2017-06-02T08:43:22.358Z,23.09
2017-06-02T08:44:22.295Z,23
2017-06-02T08:45:22.279Z,23.06
2017-06-02T08:46:22.165Z,23.12
2017-06-02T08:47:22.112Z,23.08
2017-06-02T08:48:21.738Z,23.05
2017-06-02T08:49:21.672Z,23.02
2017-06-02T08:50:21.912Z,23.05
2017-06-02T08:51:21.854Z,23.03
2017-06-02T08:52:21.483Z,23.05
2017-06-02T08:53:21.727Z,23.05
2017-06-02T08:54:21.664Z,23.02
2017-06-02T08:55:21.602Z,23.06
2017-06-02T08:56:21.541Z,23.09
2017-06-02T08:57:21.172Z,23.08
2017-06-02T08:58:21.411Z,23.08
2017-06-02T08:59:21.349Z,23.06
2017-06-02T09:00:21.288Z,23.15
2017-06-02T09:01:20.923Z,23.1
2017-06-02T09:02:21.160Z,23.05
2017-06-02T09:03:21.101Z,23.03
2017-06-02T09:04:20.734Z,23.1
2017-06-02T09:05:20.976Z,23.05
2017-06-02T09:06:20.911Z,23.06
2017-06-02T09:07:20.869Z,23.05
2017-06-02T09:08:20.797Z,23.08
2017-06-02T09:09:20.750Z,23.08
2017-06-02T09:10:20.356Z,23.03
2017-06-02T09:11:20.595Z,23.03
2017-06-02T09:12:20.533Z,23.03
2017-06-02T09:13:20.470Z,23.06
2017-06-02T09:14:20.409Z,23.08
2017-06-02T09:15:20.344Z,23.02
2017-06-02T09:16:20.282Z,23.06
2017-06-02T09:17:20.224Z,23.05
2017-06-02T09:18:20.157Z,23.03
2017-06-02T09:19:19.795Z,23.03
2017-06-02T09:20:20.041Z,23.02
2017-06-02T09:21:19.972Z,23.05
2017-06-02T09:22:19.907Z,23.05
2017-06-02T09:23:19.843Z,23.03
2017-06-02T09:24:19.782Z,23.03
2017-06-02T09:25:19.722Z,23
2017-06-02T09:26:19.353Z,23.06
2017-06-02T09:27:19.591Z,23
2017-06-02T09:28:19.532Z,23.06
2017-06-02T09:29:19.467Z,23.06
2017-06-02T09:30:19.409Z,23.03
2017-06-02T09:31:19.043Z,23.03
2017-06-02T09:32:19.285Z,23.05
2017-06-02T09:33:19.216Z,23.06
2017-06-02T09:34:18.858Z,23
2017-06-02T09:35:19.248Z,23.06
2017-06-02T09:36:19.086Z,23.06
2017-06-02T09:37:18.970Z,23.02
2017-06-02T09:38:18.603Z,23.06
2017-06-02T09:39:18.847Z,23.03
2017-06-02T09:40:18.779Z,23.03
2017-06-02T09:41:18.721Z,23.02
2017-06-02T09:42:18.655Z,23.06
2017-06-02T09:43:18.616Z,23.05
2017-06-02T09:44:18.536Z,23.05
2017-06-02T09:45:18.467Z,23
2017-06-02T09:46:18.403Z,23.03
2017-06-02T09:47:18.345Z,23.05
2017-06-02T09:48:18.278Z,22.99
2017-06-02T09:49:18.216Z,23.02
2017-06-02T09:50:18.153Z,23.02
2017-06-02T09:51:18.088Z,22.99
2017-06-02T09:52:18.028Z,23.02
2017-06-02T09:53:17.964Z,23
2017-06-02T09:54:17.904Z,22.93
2017-06-02T09:55:17.850Z,22.99
2017-06-02T09:56:17.780Z,22.91
2017-06-02T09:57:17.414Z,23
2017-06-02T09:58:17.651Z,22.98
2017-06-02T09:59:17.285Z,22.93
2017-06-02T10:00:17.530Z,22.93
2017-06-02T10:01:17.461Z,23.05
2017-06-02T10:02:17.098Z,22.99
2017-06-02T10:03:17.035Z,22.93
2017-06-02T10:04:17.270Z,23
2017-06-02T10:05:17.219Z,22.99
2017-06-02T10:06:17.150Z,23.03
2017-06-02T10:07:17.086Z,22.96
2017-06-02T10:08:17.030Z,22.96
2017-06-02T10:09:16.660Z,23.05
2017-06-02T10:10:16.897Z,22.98
2017-06-02T10:11:16.833Z,23.02
2017-06-02T10:12:16.473Z,22.99
2017-06-02T10:13:16.706Z,22.98
2017-06-02T10:14:16.646Z,23.02
2017-06-02T10:15:16.690Z,23.05
2017-06-02T10:16:16.224Z,23
2017-06-02T10:17:16.473Z,23.02
2017-06-02T10:18:16.108Z,23
2017-06-02T10:19:16.043Z,23.02
2017-06-02T10:20:16.288Z,22.99
2017-06-02T10:21:15.903Z,22.99
2017-06-02T10:22:16.151Z,22.98
2017-06-02T10:23:16.096Z,23
2017-06-02T10:24:16.022Z,23.02
2017-06-02T10:25:15.954Z,22.96
2017-06-02T10:26:15.895Z,22.96
2017-06-02T10:27:15.833Z,23.03
2017-06-02T10:28:15.522Z,23.02
2017-06-02T10:29:15.704Z,22.99
2017-06-02T10:30:15.645Z,23.06
2017-06-02T10:31:15.585Z,22.99
2017-06-02T10:32:15.517Z,22.99
2017-06-02T10:33:15.455Z,23
2017-06-02T10:34:15.396Z,22.98
2017-06-02T10:35:15.327Z,23.05
2017-06-02T10:36:15.263Z,22.96
2017-06-02T10:37:15.207Z,23.03
2017-06-02T10:38:15.141Z,23
2017-06-02T10:39:15.074Z,23.03
2017-06-02T10:40:15.015Z,23.02
2017-06-02T10:41:14.956Z,22.99
2017-06-02T10:42:14.888Z,23.03
2017-06-02T10:43:14.823Z,23.02
2017-06-02T10:44:14.766Z,23.06
2017-06-02T10:45:14.402Z,23.03
2017-06-02T10:46:14.338Z,23
2017-06-02T10:47:14.572Z,23
2017-06-02T10:48:14.516Z,22.98
2017-06-02T10:49:14.461Z,23.03
2017-06-02T10:50:29.287Z,23.08
2017-06-02T10:51:14.045Z,23.06
2017-06-02T10:52:14.267Z,23.05
2017-06-02T10:53:14.206Z,23.06
2017-06-02T10:54:14.139Z,23
2017-06-02T10:55:14.082Z,22.98
2017-06-02T10:56:13.709Z,23.06
2017-06-02T10:57:14.256Z,23.05
2017-06-02T10:58:13.906Z,23.02
2017-06-02T10:59:28.420Z,23
2017-06-02T11:00:13.768Z,23.03
2017-06-02T11:01:13.400Z,23.02
2017-06-02T11:02:13.662Z,23.02
2017-06-02T11:03:13.575Z,23.05
2017-06-02T11:04:13.510Z,23.03
2017-06-02T11:05:13.460Z,23
2017-06-02T11:06:13.089Z,23.02
2017-06-02T11:07:12.750Z,23.06
2017-06-02T11:08:13.265Z,23.02
2017-06-02T11:09:13.209Z,23.08
2017-06-02T11:10:13.140Z,23.02
2017-06-02T11:11:13.081Z,23.05
2017-06-02T11:12:13.022Z,23.05
2017-06-02T11:13:12.960Z,23.03
2017-06-02T11:14:12.291Z,23.06
2017-06-02T11:15:12.822Z,23.02
2017-06-02T11:16:12.479Z,23.02
2017-06-02T11:17:12.428Z,23.06
2017-06-02T11:18:12.361Z,23.02
2017-06-02T11:19:12.306Z,23.02
2017-06-02T11:20:12.592Z,22.99
2017-06-02T11:21:12.219Z,23.05
2017-06-02T11:22:12.084Z,23.06
2017-06-02T11:23:12.340Z,23
2017-06-02T11:24:11.954Z,23.02
2017-06-02T11:25:11.898Z,22.96
2017-06-02T11:26:11.825Z,23.03
2017-06-02T11:27:12.071Z,23
2017-06-02T11:28:12.002Z,23.05
2017-06-02T11:29:11.641Z,23
2017-06-02T11:30:11.572Z,23.02
2017-06-02T11:31:11.510Z,23
2017-06-02T11:32:11.767Z,23.03
2017-06-02T11:33:11.387Z,23.03
2017-06-02T11:34:11.625Z,23
2017-06-02T11:35:11.262Z,23.02
2017-06-02T11:36:11.505Z,23.02
2017-06-02T11:37:11.446Z,23.02
2017-06-02T11:38:11.378Z,23.02
2017-06-02T11:39:11.310Z,23.03
2017-06-02T11:40:10.643Z,23.02
2017-06-02T11:41:11.227Z,23
2017-06-02T11:42:11.121Z,23.02
2017-06-02T11:43:11.059Z,23.03
2017-06-02T11:44:10.997Z,23.02
2017-06-02T11:45:10.933Z,22.99
2017-06-02T11:46:10.870Z,23.03
2017-06-02T11:47:10.806Z,22.98
2017-06-02T11:48:10.745Z,23.05
2017-06-02T11:49:10.381Z,23.03
2017-06-02T11:50:10.617Z,22.99
2017-06-02T11:51:10.560Z,22.91
2017-06-02T11:52:09.899Z,22.99
2017-06-02T11:53:10.127Z,22.94
2017-06-02T11:54:10.065Z,22.98
2017-06-02T11:55:10.310Z,22.94
2017-06-02T11:56:09.944Z,23.03
2017-06-02T11:57:10.183Z,22.99
2017-06-02T11:58:09.818Z,23.03
2017-06-02T11:59:09.756Z,22.96
2017-06-02T12:00:09.688Z,22.9
2017-06-02T12:01:09.950Z,22.98
2017-06-02T12:02:09.872Z,23.03
2017-06-02T12:03:09.804Z,22.98
2017-06-02T12:04:09.741Z,22.94
2017-06-02T12:05:09.676Z,23.05
2017-06-02T12:06:09.616Z,23
2017-06-02T12:07:09.551Z,22.98
2017-06-02T12:08:09.488Z,22.99
2017-06-02T12:09:09.429Z,23.02
2017-06-02T12:10:09.090Z,22.99
2017-06-02T12:11:09.305Z,22.98
2017-06-02T12:12:09.239Z,22.98
2017-06-02T12:13:09.177Z,23.03
2017-06-02T12:14:08.808Z,22.9
2017-06-02T12:15:09.048Z,22.91
2017-06-02T12:16:08.991Z,23.02
2017-06-02T12:17:08.931Z,22.96
2017-06-02T12:18:08.909Z,23
2017-06-02T12:19:08.810Z,22.94
2017-06-02T12:20:08.735Z,22.91
2017-06-02T12:21:08.368Z,23.03
2017-06-02T12:22:08.613Z,22.99
2017-06-02T12:23:08.550Z,22.9
2017-06-02T12:24:08.488Z,23.03
2017-06-02T12:25:08.144Z,22.98
2017-06-02T12:26:08.361Z,22.96
2017-06-02T12:27:08.301Z,22.94
2017-06-02T12:28:07.953Z,22.9
2017-06-02T12:29:08.186Z,22.98
2017-06-02T12:30:08.106Z,22.9
2017-06-02T12:31:08.041Z,22.9
2017-06-02T12:32:07.982Z,22.93
2017-06-02T12:33:07.917Z,23
2017-06-02T12:34:07.855Z,23
2017-06-02T12:35:07.791Z,22.98
2017-06-02T12:36:07.732Z,22.94
2017-06-02T12:37:07.367Z,23
2017-06-02T12:38:07.605Z,22.94
2017-06-02T12:39:07.541Z,22.93
2017-06-02T12:40:07.478Z,23
2017-06-02T12:41:07.626Z,22.93
2017-06-02T12:42:07.354Z,23
2017-06-02T12:43:07.297Z,23
2017-06-02T12:44:07.242Z,22.96
2017-06-02T12:45:07.170Z,22.96
2017-06-02T12:46:06.802Z,22.88
2017-06-02T12:47:07.051Z,22.87
2017-06-02T12:48:06.974Z,22.93
2017-06-02T12:49:06.917Z,22.9
2017-06-02T12:50:06.565Z,22.93
2017-06-02T12:51:06.788Z,23
2017-06-02T12:52:06.423Z,22.93
2017-06-02T12:53:06.677Z,22.98
2017-06-02T12:54:06.599Z,22.85
2017-06-02T12:55:06.538Z,22.9
2017-06-02T12:56:06.469Z,22.93
2017-06-02T12:57:06.413Z,22.94
2017-06-02T12:58:06.082Z,22.9
2017-06-02T12:59:06.283Z,22.99
2017-06-02T13:00:06.234Z,22.94